sensor_id;sensor_type;location;lat;lon;timestamp;P1;durP1;ratioP1;P2;durP2;ratioP2
33413;SDS011;60055;41.884;12.534;2022-10-30T00:00:49;22.70;;;10.02;;
33413;SDS011;60055;41.884;12.534;2022-10-30T00:03:16;21.40;;;9.35;;
33413;SDS011;60055;41.884;12.534;2022-10-30T00:05:42;19.40;;;8.43;;
33413;SDS011;60055;41.884;12.534;2022-10-30T00:08:11;20.98;;;8.40;;
33413;SDS011;60055;41.884;12.534;2022-10-30T00:10:39;21.27;;;8.38;;
33413;SDS011;60055;41.884;12.534;2022-10-30T00:13:08;20.40;;;8.13;;
33413;SDS011;60055;41.884;12.534;2022-10-30T00:15:35;20.67;;;8.43;;
33413;SDS011;60055;41.884;12.534;2022-10-30T00:18:01;21.60;;;9.05;;
33413;SDS011;60055;41.884;12.534;2022-10-30T00:20:27;20.20;;;8.55;;
33413;SDS011;60055;41.884;12.534;2022-10-30T00:22:53;24.25;;;9.60;;
33413;SDS011;60055;41.884;12.534;2022-10-30T00:25:19;19.85;;;8.98;;
33413;SDS011;60055;41.884;12.534;2022-10-30T00:27:45;21.55;;;9.30;;
33413;SDS011;60055;41.884;12.534;2022-10-30T00:30:11;22.30;;;8.27;;
33413;SDS011;60055;41.884;12.534;2022-10-30T00:32:39;20.33;;;8.30;;
33413;SDS011;60055;41.884;12.534;2022-10-30T00:35:06;20.20;;;8.13;;
33413;SDS011;60055;41.884;12.534;2022-10-30T00:37:33;23.85;;;9.00;;
33413;SDS011;60055;41.884;12.534;2022-10-30T00:40:00;21.05;;;8.57;;
33413;SDS011;60055;41.884;12.534;2022-10-30T00:42:28;18.52;;;8.00;;
33413;SDS011;60055;41.884;12.534;2022-10-30T00:44:55;16.80;;;7.68;;
33413;SDS011;60055;41.884;12.534;2022-10-30T00:47:55;25.52;;;8.20;;
33413;SDS011;60055;41.884;12.534;2022-10-30T00:50:24;21.73;;;7.90;;
33413;SDS011;60055;41.884;12.534;2022-10-30T00:52:54;26.60;;;8.43;;
33413;SDS011;60055;41.884;12.534;2022-10-30T00:55:26;19.48;;;8.25;;
33413;SDS011;60055;41.884;12.534;2022-10-30T00:57:58;21.92;;;8.63;;
33413;SDS011;60055;41.884;12.534;2022-10-30T01:00:27;23.50;;;8.95;;
33413;SDS011;60055;41.884;12.534;2022-10-30T01:02:54;22.23;;;9.85;;
33413;SDS011;60055;41.884;12.534;2022-10-30T01:05:22;16.70;;;8.85;;
33413;SDS011;60055;41.884;12.534;2022-10-30T01:07:51;21.42;;;8.80;;
33413;SDS011;60055;41.884;12.534;2022-10-30T01:10:16;22.55;;;9.48;;
33413;SDS011;60055;41.884;12.534;2022-10-30T01:12:42;26.27;;;10.23;;
33413;SDS011;60055;41.884;12.534;2022-10-30T01:15:10;25.88;;;9.52;;
33413;SDS011;60055;41.884;12.534;2022-10-30T01:25:46;17.65;;;9.40;;
33413;SDS011;60055;41.884;12.534;2022-10-30T01:36:42;24.70;;;9.63;;
33413;SDS011;60055;41.884;12.534;2022-10-30T01:39:17;20.83;;;9.02;;
33413;SDS011;60055;41.884;12.534;2022-10-30T01:41:46;22.48;;;9.05;;
33413;SDS011;60055;41.884;12.534;2022-10-30T01:44:13;23.05;;;9.02;;
33413;SDS011;60055;41.884;12.534;2022-10-30T01:49:37;21.40;;;9.70;;
33413;SDS011;60055;41.884;12.534;2022-10-30T02:00:30;24.77;;;9.32;;
33413;SDS011;60055;41.884;12.534;2022-10-30T02:02:55;21.48;;;8.57;;
33413;SDS011;60055;41.884;12.534;2022-10-30T02:05:32;20.00;;;8.18;;
33413;SDS011;60055;41.884;12.534;2022-10-30T02:08:05;24.02;;;8.15;;
33413;SDS011;60055;41.884;12.534;2022-10-30T02:10:32;26.80;;;8.65;;
33413;SDS011;60055;41.884;12.534;2022-10-30T02:12:59;20.75;;;7.63;;
33413;SDS011;60055;41.884;12.534;2022-10-30T02:15:25;18.55;;;7.75;;
33413;SDS011;60055;41.884;12.534;2022-10-30T02:17:51;17.42;;;8.20;;
33413;SDS011;60055;41.884;12.534;2022-10-30T02:20:18;15.77;;;7.60;;
33413;SDS011;60055;41.884;12.534;2022-10-30T02:22:45;18.25;;;8.10;;
33413;SDS011;60055;41.884;12.534;2022-10-30T02:25:11;21.63;;;8.05;;
33413;SDS011;60055;41.884;12.534;2022-10-30T02:27:38;15.80;;;7.65;;
33413;SDS011;60055;41.884;12.534;2022-10-30T02:30:04;25.58;;;8.25;;
33413;SDS011;60055;41.884;12.534;2022-10-30T02:32:30;15.07;;;7.22;;
33413;SDS011;60055;41.884;12.534;2022-10-30T02:34:55;16.80;;;7.32;;
33413;SDS011;60055;41.884;12.534;2022-10-30T02:37:21;20.85;;;6.80;;
33413;SDS011;60055;41.884;12.534;2022-10-30T02:39:48;19.92;;;6.43;;
33413;SDS011;60055;41.884;12.534;2022-10-30T02:42:14;17.75;;;6.70;;
33413;SDS011;60055;41.884;12.534;2022-10-30T02:44:41;15.05;;;6.57;;
33413;SDS011;60055;41.884;12.534;2022-10-30T02:47:07;16.05;;;6.40;;
33413;SDS011;60055;41.884;12.534;2022-10-30T02:49:32;15.10;;;7.00;;
33413;SDS011;60055;41.884;12.534;2022-10-30T02:51:59;16.05;;;6.28;;
33413;SDS011;60055;41.884;12.534;2022-10-30T02:54:33;13.93;;;5.90;;
33413;SDS011;60055;41.884;12.534;2022-10-30T02:57:00;17.60;;;6.57;;
33413;SDS011;60055;41.884;12.534;2022-10-30T02:59:26;11.73;;;5.88;;
33413;SDS011;60055;41.884;12.534;2022-10-30T03:01:52;14.20;;;6.07;;
33413;SDS011;60055;41.884;12.534;2022-10-30T03:04:18;13.95;;;6.03;;
33413;SDS011;60055;41.884;12.534;2022-10-30T03:06:44;14.25;;;6.22;;
33413;SDS011;60055;41.884;12.534;2022-10-30T03:09:10;16.15;;;6.40;;
33413;SDS011;60055;41.884;12.534;2022-10-30T03:11:38;17.83;;;6.35;;
33413;SDS011;60055;41.884;12.534;2022-10-30T03:14:03;18.95;;;6.47;;
33413;SDS011;60055;41.884;12.534;2022-10-30T03:16:29;15.73;;;6.88;;
33413;SDS011;60055;41.884;12.534;2022-10-30T03:18:57;14.35;;;6.47;;
33413;SDS011;60055;41.884;12.534;2022-10-30T03:21:24;19.52;;;7.18;;
33413;SDS011;60055;41.884;12.534;2022-10-30T03:23:51;20.27;;;7.20;;
33413;SDS011;60055;41.884;12.534;2022-10-30T03:26:18;16.45;;;6.82;;
33413;SDS011;60055;41.884;12.534;2022-10-30T03:28:44;21.50;;;7.55;;
33413;SDS011;60055;41.884;12.534;2022-10-30T03:31:14;14.60;;;6.55;;
33413;SDS011;60055;41.884;12.534;2022-10-30T03:33:41;18.60;;;6.88;;
33413;SDS011;60055;41.884;12.534;2022-10-30T03:36:08;15.52;;;7.35;;
33413;SDS011;60055;41.884;12.534;2022-10-30T03:38:35;13.95;;;7.32;;
33413;SDS011;60055;41.884;12.534;2022-10-30T03:41:02;17.85;;;7.18;;
33413;SDS011;60055;41.884;12.534;2022-10-30T03:43:28;15.45;;;6.60;;
33413;SDS011;60055;41.884;12.534;2022-10-30T03:45:54;17.65;;;6.95;;
33413;SDS011;60055;41.884;12.534;2022-10-30T03:48:21;16.98;;;7.20;;
33413;SDS011;60055;41.884;12.534;2022-10-30T03:50:53;17.75;;;7.47;;
33413;SDS011;60055;41.884;12.534;2022-10-30T03:53:22;19.52;;;7.38;;
33413;SDS011;60055;41.884;12.534;2022-10-30T03:55:50;13.63;;;6.88;;
33413;SDS011;60055;41.884;12.534;2022-10-30T03:58:17;15.00;;;7.60;;
33413;SDS011;60055;41.884;12.534;2022-10-30T04:00:42;19.23;;;7.13;;
33413;SDS011;60055;41.884;12.534;2022-10-30T04:03:08;14.80;;;6.70;;
33413;SDS011;60055;41.884;12.534;2022-10-30T04:05:36;14.88;;;7.20;;
33413;SDS011;60055;41.884;12.534;2022-10-30T04:08:03;15.73;;;7.80;;
33413;SDS011;60055;41.884;12.534;2022-10-30T04:10:31;18.48;;;7.20;;
33413;SDS011;60055;41.884;12.534;2022-10-30T04:12:59;15.30;;;7.03;;
33413;SDS011;60055;41.884;12.534;2022-10-30T04:15:29;15.98;;;6.85;;
33413;SDS011;60055;41.884;12.534;2022-10-30T04:18:01;14.32;;;6.50;;
33413;SDS011;60055;41.884;12.534;2022-10-30T04:20:32;12.68;;;6.45;;
33413;SDS011;60055;41.884;12.534;2022-10-30T04:23:02;21.90;;;7.22;;
33413;SDS011;60055;41.884;12.534;2022-10-30T04:25:29;24.77;;;6.72;;
33413;SDS011;60055;41.884;12.534;2022-10-30T04:27:55;14.25;;;6.22;;
33413;SDS011;60055;41.884;12.534;2022-10-30T04:30:22;14.43;;;6.25;;
33413;SDS011;60055;41.884;12.534;2022-10-30T04:32:59;16.55;;;6.43;;
33413;SDS011;60055;41.884;12.534;2022-10-30T04:35:26;17.30;;;6.55;;
33413;SDS011;60055;41.884;12.534;2022-10-30T04:37:58;15.30;;;6.35;;
33413;SDS011;60055;41.884;12.534;2022-10-30T04:40:26;16.52;;;6.82;;
33413;SDS011;60055;41.884;12.534;2022-10-30T04:42:55;12.65;;;5.93;;
33413;SDS011;60055;41.884;12.534;2022-10-30T04:45:22;18.08;;;6.90;;
33413;SDS011;60055;41.884;12.534;2022-10-30T04:47:48;13.98;;;6.40;;
33413;SDS011;60055;41.884;12.534;2022-10-30T04:50:14;18.13;;;6.68;;
33413;SDS011;60055;41.884;12.534;2022-10-30T04:52:40;15.48;;;6.80;;
33413;SDS011;60055;41.884;12.534;2022-10-30T04:55:08;22.83;;;6.88;;
33413;SDS011;60055;41.884;12.534;2022-10-30T04:57:35;21.05;;;7.40;;
33413;SDS011;60055;41.884;12.534;2022-10-30T05:00:02;19.27;;;6.55;;
33413;SDS011;60055;41.884;12.534;2022-10-30T05:02:30;17.70;;;7.45;;
33413;SDS011;60055;41.884;12.534;2022-10-30T05:04:56;18.27;;;7.25;;
33413;SDS011;60055;41.884;12.534;2022-10-30T05:07:21;18.55;;;7.07;;
33413;SDS011;60055;41.884;12.534;2022-10-30T05:09:48;17.60;;;6.88;;
33413;SDS011;60055;41.884;12.534;2022-10-30T05:12:15;13.43;;;6.90;;
33413;SDS011;60055;41.884;12.534;2022-10-30T05:14:42;16.10;;;6.97;;
33413;SDS011;60055;41.884;12.534;2022-10-30T05:17:08;18.88;;;7.13;;
33413;SDS011;60055;41.884;12.534;2022-10-30T05:19:34;18.48;;;6.68;;
33413;SDS011;60055;41.884;12.534;2022-10-30T05:21:59;17.08;;;7.05;;
33413;SDS011;60055;41.884;12.534;2022-10-30T05:24:26;14.82;;;7.60;;
33413;SDS011;60055;41.884;12.534;2022-10-30T05:26:52;12.60;;;7.25;;
33413;SDS011;60055;41.884;12.534;2022-10-30T05:29:17;14.85;;;7.10;;
33413;SDS011;60055;41.884;12.534;2022-10-30T05:31:43;17.38;;;8.30;;
33413;SDS011;60055;41.884;12.534;2022-10-30T05:34:08;22.17;;;7.57;;
33413;SDS011;60055;41.884;12.534;2022-10-30T05:36:34;17.17;;;7.78;;
33413;SDS011;60055;41.884;12.534;2022-10-30T05:39:01;18.30;;;7.03;;
33413;SDS011;60055;41.884;12.534;2022-10-30T05:41:27;16.15;;;7.35;;
33413;SDS011;60055;41.884;12.534;2022-10-30T05:43:53;18.85;;;7.40;;
33413;SDS011;60055;41.884;12.534;2022-10-30T05:46:19;17.80;;;7.38;;
33413;SDS011;60055;41.884;12.534;2022-10-30T05:48:44;23.90;;;7.70;;
33413;SDS011;60055;41.884;12.534;2022-10-30T05:51:11;15.68;;;7.45;;
33413;SDS011;60055;41.884;12.534;2022-10-30T05:53:37;20.73;;;8.93;;
33413;SDS011;60055;41.884;12.534;2022-10-30T05:56:03;24.70;;;12.52;;
33413;SDS011;60055;41.884;12.534;2022-10-30T05:58:28;22.50;;;10.35;;
33413;SDS011;60055;41.884;12.534;2022-10-30T06:00:57;17.70;;;7.80;;
33413;SDS011;60055;41.884;12.534;2022-10-30T06:03:22;18.90;;;7.68;;
33413;SDS011;60055;41.884;12.534;2022-10-30T06:05:48;17.23;;;7.25;;
33413;SDS011;60055;41.884;12.534;2022-10-30T06:08:14;15.63;;;7.07;;
33413;SDS011;60055;41.884;12.534;2022-10-30T06:10:48;20.63;;;7.53;;
33413;SDS011;60055;41.884;12.534;2022-10-30T06:13:13;19.60;;;7.45;;
33413;SDS011;60055;41.884;12.534;2022-10-30T06:15:39;13.20;;;7.50;;
33413;SDS011;60055;41.884;12.534;2022-10-30T06:18:08;20.90;;;7.38;;
33413;SDS011;60055;41.884;12.534;2022-10-30T06:20:34;15.80;;;6.38;;
33413;SDS011;60055;41.884;12.534;2022-10-30T06:23:01;17.77;;;7.00;;
33413;SDS011;60055;41.884;12.534;2022-10-30T06:25:29;16.33;;;6.72;;
33413;SDS011;60055;41.884;12.534;2022-10-30T06:27:56;16.08;;;7.25;;
33413;SDS011;60055;41.884;12.534;2022-10-30T06:30:23;16.52;;;6.85;;
33413;SDS011;60055;41.884;12.534;2022-10-30T06:32:59;15.98;;;6.70;;
33413;SDS011;60055;41.884;12.534;2022-10-30T06:35:26;16.30;;;6.97;;
33413;SDS011;60055;41.884;12.534;2022-10-30T06:37:53;17.42;;;7.38;;
33413;SDS011;60055;41.884;12.534;2022-10-30T06:40:20;18.10;;;6.75;;
33413;SDS011;60055;41.884;12.534;2022-10-30T06:42:48;16.83;;;7.05;;
33413;SDS011;60055;41.884;12.534;2022-10-30T06:45:15;16.48;;;7.57;;
33413;SDS011;60055;41.884;12.534;2022-10-30T06:47:41;14.38;;;7.03;;
33413;SDS011;60055;41.884;12.534;2022-10-30T06:50:09;12.52;;;7.05;;
33413;SDS011;60055;41.884;12.534;2022-10-30T06:52:36;13.68;;;6.35;;
33413;SDS011;60055;41.884;12.534;2022-10-30T06:55:02;18.23;;;7.28;;
33413;SDS011;60055;41.884;12.534;2022-10-30T06:57:28;15.45;;;6.65;;
33413;SDS011;60055;41.884;12.534;2022-10-30T06:59:54;13.18;;;6.68;;
33413;SDS011;60055;41.884;12.534;2022-10-30T07:02:20;18.88;;;7.63;;
33413;SDS011;60055;41.884;12.534;2022-10-30T07:04:46;14.52;;;6.53;;
33413;SDS011;60055;41.884;12.534;2022-10-30T07:07:12;16.90;;;7.20;;
33413;SDS011;60055;41.884;12.534;2022-10-30T07:09:38;16.92;;;6.65;;
33413;SDS011;60055;41.884;12.534;2022-10-30T07:12:05;14.52;;;6.60;;
33413;SDS011;60055;41.884;12.534;2022-10-30T07:14:31;23.15;;;6.65;;
33413;SDS011;60055;41.884;12.534;2022-10-30T07:16:58;16.63;;;6.90;;
33413;SDS011;60055;41.884;12.534;2022-10-30T07:19:26;13.45;;;6.30;;
33413;SDS011;60055;41.884;12.534;2022-10-30T07:21:51;15.80;;;6.32;;
33413;SDS011;60055;41.884;12.534;2022-10-30T07:24:17;16.15;;;6.38;;
33413;SDS011;60055;41.884;12.534;2022-10-30T07:26:42;14.20;;;6.22;;
33413;SDS011;60055;41.884;12.534;2022-10-30T07:29:08;14.85;;;6.05;;
33413;SDS011;60055;41.884;12.534;2022-10-30T07:31:35;19.88;;;6.30;;
33413;SDS011;60055;41.884;12.534;2022-10-30T07:34:00;15.57;;;5.80;;
33413;SDS011;60055;41.884;12.534;2022-10-30T07:36:26;16.60;;;6.15;;
33413;SDS011;60055;41.884;12.534;2022-10-30T07:38:53;10.48;;;6.00;;
33413;SDS011;60055;41.884;12.534;2022-10-30T07:41:19;14.60;;;5.90;;
33413;SDS011;60055;41.884;12.534;2022-10-30T07:43:45;14.68;;;5.53;;
33413;SDS011;60055;41.884;12.534;2022-10-30T07:46:13;17.70;;;5.75;;
33413;SDS011;60055;41.884;12.534;2022-10-30T07:48:38;12.98;;;5.03;;
33413;SDS011;60055;41.884;12.534;2022-10-30T07:51:04;15.18;;;4.85;;
33413;SDS011;60055;41.884;12.534;2022-10-30T07:53:30;16.42;;;5.20;;
33413;SDS011;60055;41.884;12.534;2022-10-30T07:55:57;16.15;;;5.28;;
33413;SDS011;60055;41.884;12.534;2022-10-30T07:58:23;12.15;;;4.22;;
33413;SDS011;60055;41.884;12.534;2022-10-30T08:00:48;10.27;;;4.53;;
33413;SDS011;60055;41.884;12.534;2022-10-30T08:03:14;10.00;;;4.70;;
33413;SDS011;60055;41.884;12.534;2022-10-30T08:05:39;12.68;;;4.72;;
33413;SDS011;60055;41.884;12.534;2022-10-30T08:08:05;12.48;;;4.68;;
33413;SDS011;60055;41.884;12.534;2022-10-30T08:10:33;13.77;;;4.65;;
33413;SDS011;60055;41.884;12.534;2022-10-30T08:13:00;13.15;;;4.43;;
33413;SDS011;60055;41.884;12.534;2022-10-30T08:15:27;14.35;;;4.15;;
33413;SDS011;60055;41.884;12.534;2022-10-30T08:17:55;8.48;;;4.47;;
33413;SDS011;60055;41.884;12.534;2022-10-30T08:20:21;16.33;;;4.55;;
33413;SDS011;60055;41.884;12.534;2022-10-30T08:25:21;12.38;;;4.45;;
33413;SDS011;60055;41.884;12.534;2022-10-30T08:27:58;10.20;;;4.30;;
33413;SDS011;60055;41.884;12.534;2022-10-30T08:30:26;7.97;;;3.45;;
33413;SDS011;60055;41.884;12.534;2022-10-30T08:32:56;14.70;;;3.95;;
33413;SDS011;60055;41.884;12.534;2022-10-30T08:35:22;11.43;;;3.70;;
33413;SDS011;60055;41.884;12.534;2022-10-30T08:37:48;13.57;;;3.88;;
33413;SDS011;60055;41.884;12.534;2022-10-30T08:40:18;9.50;;;4.00;;
33413;SDS011;60055;41.884;12.534;2022-10-30T08:42:49;10.15;;;3.70;;
33413;SDS011;60055;41.884;12.534;2022-10-30T08:45:20;11.88;;;3.88;;
33413;SDS011;60055;41.884;12.534;2022-10-30T08:47:47;11.65;;;3.63;;
33413;SDS011;60055;41.884;12.534;2022-10-30T08:50:12;11.80;;;3.90;;
33413;SDS011;60055;41.884;12.534;2022-10-30T08:52:38;15.68;;;3.90;;
33413;SDS011;60055;41.884;12.534;2022-10-30T08:55:04;15.60;;;3.50;;
33413;SDS011;60055;41.884;12.534;2022-10-30T08:57:35;15.55;;;3.60;;
33413;SDS011;60055;41.884;12.534;2022-10-30T09:00:03;14.98;;;3.80;;
33413;SDS011;60055;41.884;12.534;2022-10-30T09:02:29;9.73;;;3.80;;
33413;SDS011;60055;41.884;12.534;2022-10-30T09:04:55;11.13;;;3.92;;
33413;SDS011;60055;41.884;12.534;2022-10-30T09:07:21;10.10;;;3.90;;
33413;SDS011;60055;41.884;12.534;2022-10-30T09:09:46;20.73;;;4.55;;
33413;SDS011;60055;41.884;12.534;2022-10-30T09:12:12;22.35;;;10.18;;
33413;SDS011;60055;41.884;12.534;2022-10-30T09:14:39;14.73;;;5.97;;
33413;SDS011;60055;41.884;12.534;2022-10-30T09:17:04;11.45;;;5.25;;
33413;SDS011;60055;41.884;12.534;2022-10-30T09:19:30;11.88;;;4.00;;
33413;SDS011;60055;41.884;12.534;2022-10-30T09:21:56;11.60;;;4.07;;
33413;SDS011;60055;41.884;12.534;2022-10-30T09:24:27;16.30;;;4.70;;
33413;SDS011;60055;41.884;12.534;2022-10-30T09:26:53;12.05;;;4.35;;
33413;SDS011;60055;41.884;12.534;2022-10-30T09:29:20;13.63;;;4.47;;
33413;SDS011;60055;41.884;12.534;2022-10-30T09:31:47;10.45;;;4.07;;
33413;SDS011;60055;41.884;12.534;2022-10-30T09:34:15;12.38;;;4.13;;
33413;SDS011;60055;41.884;12.534;2022-10-30T09:36:40;9.73;;;3.80;;
33413;SDS011;60055;41.884;12.534;2022-10-30T09:39:10;8.65;;;3.75;;
33413;SDS011;60055;41.884;12.534;2022-10-30T09:47:33;12.85;;;4.00;;
33413;SDS011;60055;41.884;12.534;2022-10-30T10:00:50;18.42;;;4.65;;
33413;SDS011;60055;41.884;12.534;2022-10-30T10:05:53;22.00;;;8.00;;
33413;SDS011;60055;41.884;12.534;2022-10-30T10:08:28;18.73;;;7.28;;
33413;SDS011;60055;41.884;12.534;2022-10-30T10:11:05;15.90;;;3.92;;
33413;SDS011;60055;41.884;12.534;2022-10-30T10:13:45;10.35;;;4.22;;
33413;SDS011;60055;41.884;12.534;2022-10-30T10:16:18;14.20;;;4.93;;
33413;SDS011;60055;41.884;12.534;2022-10-30T10:18:56;9.82;;;4.32;;
33413;SDS011;60055;41.884;12.534;2022-10-30T10:21:23;14.93;;;4.00;;
33413;SDS011;60055;41.884;12.534;2022-10-30T10:23:53;9.45;;;3.83;;
33413;SDS011;60055;41.884;12.534;2022-10-30T10:26:26;15.60;;;4.18;;
33413;SDS011;60055;41.884;12.534;2022-10-30T10:35:22;13.20;;;3.67;;
33413;SDS011;60055;41.884;12.534;2022-10-30T10:46:04;10.30;;;4.03;;
33413;SDS011;60055;41.884;12.534;2022-10-30T10:51:40;13.35;;;4.30;;
33413;SDS011;60055;41.884;12.534;2022-10-30T10:54:11;11.10;;;3.97;;
33413;SDS011;60055;41.884;12.534;2022-10-30T10:56:45;12.75;;;3.97;;
33413;SDS011;60055;41.884;12.534;2022-10-30T10:59:24;12.98;;;3.90;;
33413;SDS011;60055;41.884;12.534;2022-10-30T11:04:38;10.18;;;3.67;;
33413;SDS011;60055;41.884;12.534;2022-10-30T11:07:20;8.20;;;4.03;;
33413;SDS011;60055;41.884;12.534;2022-10-30T11:09:52;13.10;;;3.75;;
33413;SDS011;60055;41.884;12.534;2022-10-30T11:12:20;15.23;;;4.00;;
33413;SDS011;60055;41.884;12.534;2022-10-30T11:15:00;14.85;;;3.50;;
33413;SDS011;60055;41.884;12.534;2022-10-30T11:17:41;10.35;;;3.30;;
33413;SDS011;60055;41.884;12.534;2022-10-30T11:20:18;10.50;;;3.47;;
33413;SDS011;60055;41.884;12.534;2022-10-30T11:22:50;12.82;;;3.60;;
33413;SDS011;60055;41.884;12.534;2022-10-30T11:30:20;9.57;;;3.58;;
33413;SDS011;60055;41.884;12.534;2022-10-30T11:32:52;12.53;;;3.60;;
33413;SDS011;60055;41.884;12.534;2022-10-30T11:35:21;15.93;;;3.63;;
33413;SDS011;60055;41.884;12.534;2022-10-30T11:37:48;13.25;;;3.58;;
33413;SDS011;60055;41.884;12.534;2022-10-30T11:40:34;11.05;;;3.42;;
33413;SDS011;60055;41.884;12.534;2022-10-30T11:43:01;9.35;;;2.90;;
33413;SDS011;60055;41.884;12.534;2022-10-30T11:45:32;12.02;;;3.47;;
33413;SDS011;60055;41.884;12.534;2022-10-30T11:48:01;7.67;;;3.30;;
33413;SDS011;60055;41.884;12.534;2022-10-30T11:50:34;11.98;;;3.60;;
33413;SDS011;60055;41.884;12.534;2022-10-30T11:53:01;9.23;;;3.33;;
33413;SDS011;60055;41.884;12.534;2022-10-30T11:55:39;16.70;;;5.60;;
33413;SDS011;60055;41.884;12.534;2022-10-30T11:58:16;13.75;;;4.13;;
33413;SDS011;60055;41.884;12.534;2022-10-30T12:01:22;12.32;;;4.15;;
33413;SDS011;60055;41.884;12.534;2022-10-30T12:03:53;10.23;;;3.70;;
33413;SDS011;60055;41.884;12.534;2022-10-30T12:09:09;14.75;;;5.28;;
33413;SDS011;60055;41.884;12.534;2022-10-30T12:11:43;14.98;;;3.63;;
33413;SDS011;60055;41.884;12.534;2022-10-30T12:14:25;10.05;;;3.30;;
33413;SDS011;60055;41.884;12.534;2022-10-30T12:16:54;12.23;;;3.30;;
33413;SDS011;60055;41.884;12.534;2022-10-30T12:19:22;10.27;;;3.30;;
33413;SDS011;60055;41.884;12.534;2022-10-30T12:21:50;14.10;;;3.70;;
33413;SDS011;60055;41.884;12.534;2022-10-30T12:24:31;13.38;;;4.40;;
33413;SDS011;60055;41.884;12.534;2022-10-30T12:27:00;9.73;;;3.30;;
33413;SDS011;60055;41.884;12.534;2022-10-30T12:29:41;8.65;;;3.08;;
33413;SDS011;60055;41.884;12.534;2022-10-30T12:32:24;13.10;;;3.05;;
33413;SDS011;60055;41.884;12.534;2022-10-30T12:35:37;11.90;;;3.17;;
33413;SDS011;60055;41.884;12.534;2022-10-30T12:38:17;6.95;;;3.10;;
33413;SDS011;60055;41.884;12.534;2022-10-30T12:40:57;8.52;;;2.85;;
33413;SDS011;60055;41.884;12.534;2022-10-30T12:43:30;9.95;;;3.20;;
33413;SDS011;60055;41.884;12.534;2022-10-30T12:48:53;14.98;;;3.75;;
33413;SDS011;60055;41.884;12.534;2022-10-30T12:51:30;11.43;;;2.95;;
33413;SDS011;60055;41.884;12.534;2022-10-30T12:57:00;13.52;;;3.33;;
33413;SDS011;60055;41.884;12.534;2022-10-30T13:05:12;7.28;;;2.70;;
33413;SDS011;60055;41.884;12.534;2022-10-30T13:11:36;10.38;;;3.20;;
33413;SDS011;60055;41.884;12.534;2022-10-30T13:13:48;11.15;;;2.80;;
33413;SDS011;60055;41.884;12.534;2022-10-30T13:16:22;11.30;;;2.65;;
33413;SDS011;60055;41.884;12.534;2022-10-30T13:18:52;10.63;;;2.83;;
33413;SDS011;60055;41.884;12.534;2022-10-30T13:21:33;8.93;;;2.97;;
33413;SDS011;60055;41.884;12.534;2022-10-30T13:24:38;7.18;;;3.45;;
33413;SDS011;60055;41.884;12.534;2022-10-30T13:27:11;7.70;;;2.83;;
33413;SDS011;60055;41.884;12.534;2022-10-30T13:30:02;11.82;;;2.90;;
33413;SDS011;60055;41.884;12.534;2022-10-30T13:35:34;17.92;;;9.55;;
33413;SDS011;60055;41.884;12.534;2022-10-30T13:38:05;11.52;;;3.70;;
33413;SDS011;60055;41.884;12.534;2022-10-30T13:46:49;9.57;;;2.50;;
33413;SDS011;60055;41.884;12.534;2022-10-30T13:52:22;9.32;;;4.80;;
33413;SDS011;60055;41.884;12.534;2022-10-30T13:55:01;10.07;;;3.47;;
33413;SDS011;60055;41.884;12.534;2022-10-30T13:57:48;7.18;;;3.42;;
33413;SDS011;60055;41.884;12.534;2022-10-30T14:00:20;12.15;;;5.20;;
33413;SDS011;60055;41.884;12.534;2022-10-30T14:05:29;15.15;;;3.28;;
33413;SDS011;60055;41.884;12.534;2022-10-30T14:10:59;6.75;;;3.17;;
33413;SDS011;60055;41.884;12.534;2022-10-30T14:13:26;9.45;;;3.22;;
33413;SDS011;60055;41.884;12.534;2022-10-30T14:15:59;10.88;;;3.40;;
33413;SDS011;60055;41.884;12.534;2022-10-30T14:26:53;14.07;;;3.25;;
33413;SDS011;60055;41.884;12.534;2022-10-30T14:29:30;9.57;;;3.40;;
33413;SDS011;60055;41.884;12.534;2022-10-30T14:32:01;8.70;;;3.58;;
33413;SDS011;60055;41.884;12.534;2022-10-30T14:34:41;10.00;;;3.30;;
33413;SDS011;60055;41.884;12.534;2022-10-30T14:39:44;10.38;;;4.07;;
33413;SDS011;60055;41.884;12.534;2022-10-30T14:42:15;10.95;;;4.03;;
33413;SDS011;60055;41.884;12.534;2022-10-30T14:45:16;10.82;;;3.55;;
33413;SDS011;60055;41.884;12.534;2022-10-30T14:48:06;11.40;;;4.40;;
33413;SDS011;60055;41.884;12.534;2022-10-30T14:53:43;26.67;;;5.00;;
33413;SDS011;60055;41.884;12.534;2022-10-30T14:56:37;19.75;;;5.70;;
33413;SDS011;60055;41.884;12.534;2022-10-30T15:07:15;15.55;;;5.57;;
33413;SDS011;60055;41.884;12.534;2022-10-30T15:10:11;20.60;;;6.05;;
33413;SDS011;60055;41.884;12.534;2022-10-30T15:15:31;19.00;;;6.18;;
33413;SDS011;60055;41.884;12.534;2022-10-30T15:17:58;16.75;;;6.38;;
33413;SDS011;60055;41.884;12.534;2022-10-30T15:20:30;20.45;;;6.57;;
33413;SDS011;60055;41.884;12.534;2022-10-30T15:23:11;17.20;;;6.32;;
33413;SDS011;60055;41.884;12.534;2022-10-30T15:25:52;16.25;;;5.53;;
33413;SDS011;60055;41.884;12.534;2022-10-30T15:28:30;16.63;;;6.43;;
33413;SDS011;60055;41.884;12.534;2022-10-30T15:33:42;17.92;;;5.70;;
33413;SDS011;60055;41.884;12.534;2022-10-30T15:36:16;22.02;;;6.95;;
33413;SDS011;60055;41.884;12.534;2022-10-30T15:41:55;18.50;;;6.00;;
33413;SDS011;60055;41.884;12.534;2022-10-30T15:44:27;18.35;;;5.63;;
33413;SDS011;60055;41.884;12.534;2022-10-30T15:46:57;16.23;;;5.78;;
33413;SDS011;60055;41.884;12.534;2022-10-30T15:49:30;17.10;;;6.18;;
33413;SDS011;60055;41.884;12.534;2022-10-30T15:51:58;16.70;;;6.10;;
33413;SDS011;60055;41.884;12.534;2022-10-30T15:54:46;18.95;;;6.47;;
33413;SDS011;60055;41.884;12.534;2022-10-30T15:57:28;13.75;;;5.50;;
33413;SDS011;60055;41.884;12.534;2022-10-30T16:00:31;16.80;;;6.32;;
33413;SDS011;60055;41.884;12.534;2022-10-30T16:03:00;17.33;;;6.38;;
33413;SDS011;60055;41.884;12.534;2022-10-30T16:05:29;19.02;;;6.57;;
33413;SDS011;60055;41.884;12.534;2022-10-30T16:07:56;21.77;;;6.38;;
33413;SDS011;60055;41.884;12.534;2022-10-30T16:10:30;19.50;;;6.88;;
33413;SDS011;60055;41.884;12.534;2022-10-30T16:12:59;21.50;;;6.35;;
33413;SDS011;60055;41.884;12.534;2022-10-30T16:20:52;27.65;;;12.68;;
33413;SDS011;60055;41.884;12.534;2022-10-30T16:23:19;24.88;;;7.70;;
33413;SDS011;60055;41.884;12.534;2022-10-30T16:25:46;22.55;;;9.30;;
33413;SDS011;60055;41.884;12.534;2022-10-30T16:28:22;25.02;;;8.65;;
33413;SDS011;60055;41.884;12.534;2022-10-30T16:30:56;16.33;;;8.82;;
33413;SDS011;60055;41.884;12.534;2022-10-30T16:33:25;20.10;;;9.30;;
33413;SDS011;60055;41.884;12.534;2022-10-30T16:35:53;19.63;;;8.02;;
33413;SDS011;60055;41.884;12.534;2022-10-30T16:38:19;18.15;;;7.70;;
33413;SDS011;60055;41.884;12.534;2022-10-30T16:40:46;20.50;;;7.95;;
33413;SDS011;60055;41.884;12.534;2022-10-30T16:48:40;24.30;;;7.75;;
33413;SDS011;60055;41.884;12.534;2022-10-30T16:51:15;30.17;;;8.02;;
33413;SDS011;60055;41.884;12.534;2022-10-30T16:53:49;17.83;;;7.90;;
33413;SDS011;60055;41.884;12.534;2022-10-30T16:56:23;22.45;;;7.60;;
33413;SDS011;60055;41.884;12.534;2022-10-30T16:59:11;16.63;;;6.60;;
33413;SDS011;60055;41.884;12.534;2022-10-30T17:01:53;21.33;;;7.10;;
33413;SDS011;60055;41.884;12.534;2022-10-30T17:04:22;23.80;;;6.93;;
33413;SDS011;60055;41.884;12.534;2022-10-30T17:06:49;19.05;;;6.63;;
33413;SDS011;60055;41.884;12.534;2022-10-30T17:09:26;24.45;;;7.88;;
33413;SDS011;60055;41.884;12.534;2022-10-30T17:14:26;19.23;;;6.88;;